Terminal Aerodrome Forecast
Issued by NWS Upton, NY

Home | Current Version | Previous Version | Text Only | Print | Product List | Glossary On
Versions: 1 2 3 4 5 6 7 8 9 10 11 12 13 14 15 16 17 18 19 20 21 22 23 24 25 26 27 28 29 30 31 32 33 34 35 36
000
FTUS41 KOKX 052000 AAC
TAFLGA
TAF AMD
KLGA 052035Z 0521/0618 30007KT 2SM -SN BR BKN035 OVC045
      TEMPO 0521/0523 3/4SM -SN BKN020
     FM052300 34012KT P6SM BKN040 OVC070
     FM060000 33011KT P6SM SCT040 BKN070
     FM060800 36009KT P6SM FEW050=

USA.gov is the U.S. government's official web portal to all federal, state and local government web resources and services.